sensor_id;sensor_type;location;lat;lon;timestamp;temperature;humidity
22629;DHT22;11481;53.694;9.910;2022-12-20T00:01:21;7.50;99.90
22629;DHT22;11481;53.694;9.910;2022-12-20T00:03:49;7.50;99.90
22629;DHT22;11481;53.694;9.910;2022-12-20T00:06:17;7.50;99.90
22629;DHT22;11481;53.694;9.910;2022-12-20T00:08:44;7.50;99.90
22629;DHT22;11481;53.694;9.910;2022-12-20T00:11:11;7.50;99.90
22629;DHT22;11481;53.694;9.910;2022-12-20T00:13:38;7.60;99.90
22629;DHT22;11481;53.694;9.910;2022-12-20T00:16:09;7.50;99.90
22629;DHT22;11481;53.694;9.910;2022-12-20T00:18:38;7.60;99.90
22629;DHT22;11481;53.694;9.910;2022-12-20T00:21:07;7.60;99.90
22629;DHT22;11481;53.694;9.910;2022-12-20T00:23:34;7.50;99.90
22629;DHT22;11481;53.694;9.910;2022-12-20T00:26:12;7.60;99.90
22629;DHT22;11481;53.694;9.910;2022-12-20T00:28:41;7.60;99.90
22629;DHT22;11481;53.694;9.910;2022-12-20T00:31:10;7.60;99.90
22629;DHT22;11481;53.694;9.910;2022-12-20T00:33:38;7.60;99.90
22629;DHT22;11481;53.694;9.910;2022-12-20T00:36:06;7.60;99.90
22629;DHT22;11481;53.694;9.910;2022-12-20T00:38:33;7.70;99.90
22629;DHT22;11481;53.694;9.910;2022-12-20T00:43:31;7.70;99.90
22629;DHT22;11481;53.694;9.910;2022-12-20T00:45:59;7.70;99.90
22629;DHT22;11481;53.694;9.910;2022-12-20T00:48:27;7.70;99.90
22629;DHT22;11481;53.694;9.910;2022-12-20T00:50:58;7.70;99.90
22629;DHT22;11481;53.694;9.910;2022-12-20T00:53:26;7.80;99.90
22629;DHT22;11481;53.694;9.910;2022-12-20T00:55:53;7.80;99.90
22629;DHT22;11481;53.694;9.910;2022-12-20T00:58:20;7.70;99.90
22629;DHT22;11481;53.694;9.910;2022-12-20T01:00:47;7.80;99.90
22629;DHT22;11481;53.694;9.910;2022-12-20T01:03:22;7.70;99.90
22629;DHT22;11481;53.694;9.910;2022-12-20T01:06:00;7.70;99.90
22629;DHT22;11481;53.694;9.910;2022-12-20T01:08:29;7.70;99.90
22629;DHT22;11481;53.694;9.910;2022-12-20T01:11:02;7.70;99.90
22629;DHT22;11481;53.694;9.910;2022-12-20T01:13:29;7.80;99.90
22629;DHT22;11481;53.694;9.910;2022-12-20T01:16:03;7.70;99.90
22629;DHT22;11481;53.694;9.910;2022-12-20T01:18:30;7.70;99.90
22629;DHT22;11481;53.694;9.910;2022-12-20T01:21:02;7.70;99.90
22629;DHT22;11481;53.694;9.910;2022-12-20T01:23:29;7.80;99.90
22629;DHT22;11481;53.694;9.910;2022-12-20T01:26:00;7.80;99.90
22629;DHT22;11481;53.694;9.910;2022-12-20T01:28:27;7.80;99.90
22629;DHT22;11481;53.694;9.910;2022-12-20T01:30:54;7.80;99.90
22629;DHT22;11481;53.694;9.910;2022-12-20T01:33:21;7.80;99.90
22629;DHT22;11481;53.694;9.910;2022-12-20T01:36:00;7.80;99.90
22629;DHT22;11481;53.694;9.910;2022-12-20T01:38:27;7.80;99.90
22629;DHT22;11481;53.694;9.910;2022-12-20T01:40:55;7.80;99.90
22629;DHT22;11481;53.694;9.910;2022-12-20T01:43:24;7.70;99.90
22629;DHT22;11481;53.694;9.910;2022-12-20T01:45:51;7.80;99.90
22629;DHT22;11481;53.694;9.910;2022-12-20T01:48:24;7.80;99.90
22629;DHT22;11481;53.694;9.910;2022-12-20T01:50:52;7.80;99.90
22629;DHT22;11481;53.694;9.910;2022-12-20T01:53:20;7.80;99.90
22629;DHT22;11481;53.694;9.910;2022-12-20T01:55:48;7.80;99.90
22629;DHT22;11481;53.694;9.910;2022-12-20T01:58:17;7.90;99.90
22629;DHT22;11481;53.694;9.910;2022-12-20T02:00:44;7.90;99.90
22629;DHT22;11481;53.694;9.910;2022-12-20T02:03:13;7.90;99.90
22629;DHT22;11481;53.694;9.910;2022-12-20T02:05:43;7.90;99.90
22629;DHT22;11481;53.694;9.910;2022-12-20T02:08:15;7.90;99.90
22629;DHT22;11481;53.694;9.910;2022-12-20T02:16:27;8.00;99.90
22629;DHT22;11481;53.694;9.910;2022-12-20T02:19:13;8.00;99.90
22629;DHT22;11481;53.694;9.910;2022-12-20T02:24:54;8.00;99.90
22629;DHT22;11481;53.694;9.910;2022-12-20T02:30:10;8.00;99.90
22629;DHT22;11481;53.694;9.910;2022-12-20T02:35:22;8.10;99.90
22629;DHT22;11481;53.694;9.910;2022-12-20T02:37:56;8.10;99.90
22629;DHT22;11481;53.694;9.910;2022-12-20T02:40:26;8.10;99.90
22629;DHT22;11481;53.694;9.910;2022-12-20T02:42:57;8.10;99.90
22629;DHT22;11481;53.694;9.910;2022-12-20T02:45:28;8.10;99.90
22629;DHT22;11481;53.694;9.910;2022-12-20T02:48:03;8.20;99.90
22629;DHT22;11481;53.694;9.910;2022-12-20T02:50:35;8.20;99.90
22629;DHT22;11481;53.694;9.910;2022-12-20T02:53:04;8.20;99.90
22629;DHT22;11481;53.694;9.910;2022-12-20T02:56:00;8.20;99.90
22629;DHT22;11481;53.694;9.910;2022-12-20T02:58:50;8.30;99.90
22629;DHT22;11481;53.694;9.910;2022-12-20T03:01:44;8.30;99.90
22629;DHT22;11481;53.694;9.910;2022-12-20T03:04:12;8.30;99.90
22629;DHT22;11481;53.694;9.910;2022-12-20T03:06:55;8.20;99.90
22629;DHT22;11481;53.694;9.910;2022-12-20T03:09:21;8.30;99.90
22629;DHT22;11481;53.694;9.910;2022-12-20T03:11:49;8.30;99.90
22629;DHT22;11481;53.694;9.910;2022-12-20T03:14:15;8.40;99.90
22629;DHT22;11481;53.694;9.910;2022-12-20T03:16:42;8.40;99.90
22629;DHT22;11481;53.694;9.910;2022-12-20T03:19:09;8.40;99.90
22629;DHT22;11481;53.694;9.910;2022-12-20T03:21:35;8.40;99.90
22629;DHT22;11481;53.694;9.910;2022-12-20T03:24:02;8.40;99.90
22629;DHT22;11481;53.694;9.910;2022-12-20T03:26:29;8.50;99.90
22629;DHT22;11481;53.694;9.910;2022-12-20T03:28:55;8.40;99.90
22629;DHT22;11481;53.694;9.910;2022-12-20T03:31:22;8.50;99.90
22629;DHT22;11481;53.694;9.910;2022-12-20T03:33:49;8.40;99.90
22629;DHT22;11481;53.694;9.910;2022-12-20T03:36:15;8.50;99.90
22629;DHT22;11481;53.694;9.910;2022-12-20T03:38:42;8.50;99.90
22629;DHT22;11481;53.694;9.910;2022-12-20T03:41:08;8.50;99.90
22629;DHT22;11481;53.694;9.910;2022-12-20T03:43:35;8.60;99.90
22629;DHT22;11481;53.694;9.910;2022-12-20T03:46:02;8.60;99.90
22629;DHT22;11481;53.694;9.910;2022-12-20T03:48:29;8.60;99.90
22629;DHT22;11481;53.694;9.910;2022-12-20T03:50:55;8.60;99.90
22629;DHT22;11481;53.694;9.910;2022-12-20T03:53:22;8.70;99.90
22629;DHT22;11481;53.694;9.910;2022-12-20T03:55:49;8.70;99.90
22629;DHT22;11481;53.694;9.910;2022-12-20T03:58:16;8.60;99.90
22629;DHT22;11481;53.694;9.910;2022-12-20T04:00:42;8.70;99.90
22629;DHT22;11481;53.694;9.910;2022-12-20T04:03:13;8.70;99.90
22629;DHT22;11481;53.694;9.910;2022-12-20T04:05:40;8.70;99.90
22629;DHT22;11481;53.694;9.910;2022-12-20T04:08:07;8.70;99.90
22629;DHT22;11481;53.694;9.910;2022-12-20T04:10:34;8.80;99.90
22629;DHT22;11481;53.694;9.910;2022-12-20T04:13:20;8.80;99.90
22629;DHT22;11481;53.694;9.910;2022-12-20T04:15:47;8.80;99.90
22629;DHT22;11481;53.694;9.910;2022-12-20T04:18:14;8.80;99.90
22629;DHT22;11481;53.694;9.910;2022-12-20T04:20:40;8.80;99.90
22629;DHT22;11481;53.694;9.910;2022-12-20T04:23:07;8.90;99.90
22629;DHT22;11481;53.694;9.910;2022-12-20T04:25:33;8.90;99.90
22629;DHT22;11481;53.694;9.910;2022-12-20T04:28:00;8.80;99.90
22629;DHT22;11481;53.694;9.910;2022-12-20T04:30:27;8.80;99.90
22629;DHT22;11481;53.694;9.910;2022-12-20T04:32:54;8.90;99.90
22629;DHT22;11481;53.694;9.910;2022-12-20T04:35:20;8.90;99.90
22629;DHT22;11481;53.694;9.910;2022-12-20T04:37:47;8.90;99.90
22629;DHT22;11481;53.694;9.910;2022-12-20T04:40:14;8.80;99.90
22629;DHT22;11481;53.694;9.910;2022-12-20T04:42:41;8.80;99.90
22629;DHT22;11481;53.694;9.910;2022-12-20T04:45:07;8.90;99.90
22629;DHT22;11481;53.694;9.910;2022-12-20T04:47:34;8.90;99.90
22629;DHT22;11481;53.694;9.910;2022-12-20T04:50:01;8.90;99.90
22629;DHT22;11481;53.694;9.910;2022-12-20T04:52:27;8.90;99.90
22629;DHT22;11481;53.694;9.910;2022-12-20T04:55:14;9.00;99.90
22629;DHT22;11481;53.694;9.910;2022-12-20T04:57:40;9.00;99.90
22629;DHT22;11481;53.694;9.910;2022-12-20T05:00:08;9.00;99.90
22629;DHT22;11481;53.694;9.910;2022-12-20T05:02:34;8.90;99.90
22629;DHT22;11481;53.694;9.910;2022-12-20T05:05:02;8.90;99.90
22629;DHT22;11481;53.694;9.910;2022-12-20T05:07:29;9.00;99.90
22629;DHT22;11481;53.694;9.910;2022-12-20T05:09:55;8.90;99.90
22629;DHT22;11481;53.694;9.910;2022-12-20T05:12:22;9.00;99.90
22629;DHT22;11481;53.694;9.910;2022-12-20T05:14:49;9.00;99.90
22629;DHT22;11481;53.694;9.910;2022-12-20T05:17:15;9.00;99.90
22629;DHT22;11481;53.694;9.910;2022-12-20T05:19:42;9.00;99.90
22629;DHT22;11481;53.694;9.910;2022-12-20T05:22:12;9.00;99.90
22629;DHT22;11481;53.694;9.910;2022-12-20T05:24:58;9.00;99.90
22629;DHT22;11481;53.694;9.910;2022-12-20T05:27:43;9.00;99.90
22629;DHT22;11481;53.694;9.910;2022-12-20T05:30:10;9.00;99.90
22629;DHT22;11481;53.694;9.910;2022-12-20T05:32:37;9.00;99.90
22629;DHT22;11481;53.694;9.910;2022-12-20T05:35:04;9.00;99.90
22629;DHT22;11481;53.694;9.910;2022-12-20T05:37:31;9.00;99.90
22629;DHT22;11481;53.694;9.910;2022-12-20T05:39:58;8.90;99.90
22629;DHT22;11481;53.694;9.910;2022-12-20T05:42:24;8.90;99.90
22629;DHT22;11481;53.694;9.910;2022-12-20T05:44:51;8.90;99.90
22629;DHT22;11481;53.694;9.910;2022-12-20T05:47:17;8.90;99.90
22629;DHT22;11481;53.694;9.910;2022-12-20T05:49:44;8.90;99.90
22629;DHT22;11481;53.694;9.910;2022-12-20T05:52:11;8.90;99.90
22629;DHT22;11481;53.694;9.910;2022-12-20T05:54:38;8.90;99.90
22629;DHT22;11481;53.694;9.910;2022-12-20T05:57:05;8.90;99.90
22629;DHT22;11481;53.694;9.910;2022-12-20T05:59:31;8.90;99.90
22629;DHT22;11481;53.694;9.910;2022-12-20T06:01:58;9.00;99.90
22629;DHT22;11481;53.694;9.910;2022-12-20T06:04:25;9.00;99.90
22629;DHT22;11481;53.694;9.910;2022-12-20T06:06:52;9.00;99.90
22629;DHT22;11481;53.694;9.910;2022-12-20T06:09:19;9.00;99.90
22629;DHT22;11481;53.694;9.910;2022-12-20T06:11:45;9.00;99.90
22629;DHT22;11481;53.694;9.910;2022-12-20T06:14:12;9.00;99.90
22629;DHT22;11481;53.694;9.910;2022-12-20T06:16:40;8.90;99.90
22629;DHT22;11481;53.694;9.910;2022-12-20T06:19:06;8.90;99.90
22629;DHT22;11481;53.694;9.910;2022-12-20T06:21:33;8.90;99.90
22629;DHT22;11481;53.694;9.910;2022-12-20T06:24:00;8.90;99.90
22629;DHT22;11481;53.694;9.910;2022-12-20T06:26:27;8.90;99.90
22629;DHT22;11481;53.694;9.910;2022-12-20T06:29:02;8.90;99.90
22629;DHT22;11481;53.694;9.910;2022-12-20T06:31:32;8.90;99.90
22629;DHT22;11481;53.694;9.910;2022-12-20T06:33:59;8.90;99.90
22629;DHT22;11481;53.694;9.910;2022-12-20T06:36:26;8.90;99.90
22629;DHT22;11481;53.694;9.910;2022-12-20T06:38:53;8.90;99.90
22629;DHT22;11481;53.694;9.910;2022-12-20T06:41:20;8.90;99.90
22629;DHT22;11481;53.694;9.910;2022-12-20T06:43:46;9.00;99.90
22629;DHT22;11481;53.694;9.910;2022-12-20T06:46:13;9.00;99.90
22629;DHT22;11481;53.694;9.910;2022-12-20T06:48:40;9.10;99.90
22629;DHT22;11481;53.694;9.910;2022-12-20T06:51:07;9.20;99.90
22629;DHT22;11481;53.694;9.910;2022-12-20T06:53:34;9.20;99.90
22629;DHT22;11481;53.694;9.910;2022-12-20T06:56:00;9.20;99.90
22629;DHT22;11481;53.694;9.910;2022-12-20T06:58:27;9.20;99.90
22629;DHT22;11481;53.694;9.910;2022-12-20T07:00:54;9.30;99.90
22629;DHT22;11481;53.694;9.910;2022-12-20T07:03:21;9.20;99.90
22629;DHT22;11481;53.694;9.910;2022-12-20T07:05:52;9.20;99.90
22629;DHT22;11481;53.694;9.910;2022-12-20T07:08:20;9.20;99.90
22629;DHT22;11481;53.694;9.910;2022-12-20T07:10:46;9.20;99.90
22629;DHT22;11481;53.694;9.910;2022-12-20T07:13:13;9.20;99.90
22629;DHT22;11481;53.694;9.910;2022-12-20T07:15:40;9.30;99.90
22629;DHT22;11481;53.694;9.910;2022-12-20T07:18:07;9.30;99.90
22629;DHT22;11481;53.694;9.910;2022-12-20T07:20:35;9.30;99.90
22629;DHT22;11481;53.694;9.910;2022-12-20T07:23:02;9.30;99.90
22629;DHT22;11481;53.694;9.910;2022-12-20T07:25:29;9.20;99.90
22629;DHT22;11481;53.694;9.910;2022-12-20T07:27:56;9.30;99.90
22629;DHT22;11481;53.694;9.910;2022-12-20T07:30:22;9.30;99.90
22629;DHT22;11481;53.694;9.910;2022-12-20T07:32:51;9.20;99.90
22629;DHT22;11481;53.694;9.910;2022-12-20T07:35:18;9.30;99.90
22629;DHT22;11481;53.694;9.910;2022-12-20T07:37:44;9.20;99.90
22629;DHT22;11481;53.694;9.910;2022-12-20T07:40:12;9.20;99.90
22629;DHT22;11481;53.694;9.910;2022-12-20T07:42:40;9.20;99.90
22629;DHT22;11481;53.694;9.910;2022-12-20T07:45:14;9.30;99.90
22629;DHT22;11481;53.694;9.910;2022-12-20T07:47:41;9.30;99.90
22629;DHT22;11481;53.694;9.910;2022-12-20T07:50:09;9.40;99.90
22629;DHT22;11481;53.694;9.910;2022-12-20T07:52:38;9.40;99.90
22629;DHT22;11481;53.694;9.910;2022-12-20T07:55:07;9.40;99.90
22629;DHT22;11481;53.694;9.910;2022-12-20T07:57:42;9.40;99.90
22629;DHT22;11481;53.694;9.910;2022-12-20T08:00:10;9.30;99.90
22629;DHT22;11481;53.694;9.910;2022-12-20T08:03:12;9.40;99.90
22629;DHT22;11481;53.694;9.910;2022-12-20T08:05:42;9.40;99.90
22629;DHT22;11481;53.694;9.910;2022-12-20T08:08:11;9.40;99.90
22629;DHT22;11481;53.694;9.910;2022-12-20T08:10:38;9.30;99.90
22629;DHT22;11481;53.694;9.910;2022-12-20T08:13:05;9.30;99.90
22629;DHT22;11481;53.694;9.910;2022-12-20T08:15:34;9.40;99.90
22629;DHT22;11481;53.694;9.910;2022-12-20T08:18:01;9.40;99.90
22629;DHT22;11481;53.694;9.910;2022-12-20T08:20:29;9.40;99.90
22629;DHT22;11481;53.694;9.910;2022-12-20T08:22:56;9.40;99.90
22629;DHT22;11481;53.694;9.910;2022-12-20T08:25:23;9.40;99.90
22629;DHT22;11481;53.694;9.910;2022-12-20T08:27:52;9.40;99.90
22629;DHT22;11481;53.694;9.910;2022-12-20T08:30:19;9.40;99.90
22629;DHT22;11481;53.694;9.910;2022-12-20T08:32:47;9.40;99.90
22629;DHT22;11481;53.694;9.910;2022-12-20T08:35:14;9.40;99.90
22629;DHT22;11481;53.694;9.910;2022-12-20T08:37:40;9.40;99.90
22629;DHT22;11481;53.694;9.910;2022-12-20T08:40:08;9.40;99.90
22629;DHT22;11481;53.694;9.910;2022-12-20T08:42:35;9.40;99.90
22629;DHT22;11481;53.694;9.910;2022-12-20T08:45:02;9.40;99.90
22629;DHT22;11481;53.694;9.910;2022-12-20T08:47:29;9.50;99.90
22629;DHT22;11481;53.694;9.910;2022-12-20T08:49:56;9.50;99.90
22629;DHT22;11481;53.694;9.910;2022-12-20T08:52:22;9.50;99.90
22629;DHT22;11481;53.694;9.910;2022-12-20T08:54:49;9.50;99.90
22629;DHT22;11481;53.694;9.910;2022-12-20T08:57:16;9.60;99.90
22629;DHT22;11481;53.694;9.910;2022-12-20T08:59:42;9.60;99.90
22629;DHT22;11481;53.694;9.910;2022-12-20T09:02:09;9.60;99.90
22629;DHT22;11481;53.694;9.910;2022-12-20T09:04:36;9.70;99.90
22629;DHT22;11481;53.694;9.910;2022-12-20T09:07:03;9.70;99.90
22629;DHT22;11481;53.694;9.910;2022-12-20T09:09:30;9.70;99.90
22629;DHT22;11481;53.694;9.910;2022-12-20T09:11:58;9.80;99.90
22629;DHT22;11481;53.694;9.910;2022-12-20T09:14:25;9.70;99.90
22629;DHT22;11481;53.694;9.910;2022-12-20T09:16:52;9.80;99.90
22629;DHT22;11481;53.694;9.910;2022-12-20T09:19:18;9.70;99.90
22629;DHT22;11481;53.694;9.910;2022-12-20T09:21:45;9.80;99.90
22629;DHT22;11481;53.694;9.910;2022-12-20T09:24:12;9.80;99.90
22629;DHT22;11481;53.694;9.910;2022-12-20T09:26:40;9.80;99.90
22629;DHT22;11481;53.694;9.910;2022-12-20T09:29:06;9.80;99.90
22629;DHT22;11481;53.694;9.910;2022-12-20T09:31:33;9.90;99.90
22629;DHT22;11481;53.694;9.910;2022-12-20T09:34:00;9.90;99.90
22629;DHT22;11481;53.694;9.910;2022-12-20T09:36:28;10.00;99.90
22629;DHT22;11481;53.694;9.910;2022-12-20T09:38:56;10.00;99.90
22629;DHT22;11481;53.694;9.910;2022-12-20T09:41:32;10.00;99.90
22629;DHT22;11481;53.694;9.910;2022-12-20T09:44:06;10.00;99.90
22629;DHT22;11481;53.694;9.910;2022-12-20T09:46:38;10.00;99.90
22629;DHT22;11481;53.694;9.910;2022-12-20T09:49:05;10.00;99.90
22629;DHT22;11481;53.694;9.910;2022-12-20T09:57:13;10.00;99.90
22629;DHT22;11481;53.694;9.910;2022-12-20T09:59:42;10.10;99.90
22629;DHT22;11481;53.694;9.910;2022-12-20T10:02:21;10.10;99.90
22629;DHT22;11481;53.694;9.910;2022-12-20T10:05:15;10.10;99.90
22629;DHT22;11481;53.694;9.910;2022-12-20T10:10:55;10.00;99.90
22629;DHT22;11481;53.694;9.910;2022-12-20T10:13:33;10.00;99.90
22629;DHT22;11481;53.694;9.910;2022-12-20T10:16:25;10.00;99.90
22629;DHT22;11481;53.694;9.910;2022-12-20T10:24:31;10.10;99.90
22629;DHT22;11481;53.694;9.910;2022-12-20T10:27:19;10.10;99.90
22629;DHT22;11481;53.694;9.910;2022-12-20T10:29:47;10.00;99.90
22629;DHT22;11481;53.694;9.910;2022-12-20T10:32:20;10.00;99.90
22629;DHT22;11481;53.694;9.910;2022-12-20T10:34:56;10.00;99.90
22629;DHT22;11481;53.694;9.910;2022-12-20T10:37:23;10.00;99.90
22629;DHT22;11481;53.694;9.910;2022-12-20T10:39:52;10.10;99.90
22629;DHT22;11481;53.694;9.910;2022-12-20T10:42:25;10.10;99.90
22629;DHT22;11481;53.694;9.910;2022-12-20T10:44:54;10.10;99.90
22629;DHT22;11481;53.694;9.910;2022-12-20T10:47:37;10.20;99.90
22629;DHT22;11481;53.694;9.910;2022-12-20T10:50:13;10.20;99.90
22629;DHT22;11481;53.694;9.910;2022-12-20T10:52:42;10.20;99.90
22629;DHT22;11481;53.694;9.910;2022-12-20T10:55:39;10.20;99.90
22629;DHT22;11481;53.694;9.910;2022-12-20T10:58:15;10.40;99.90
22629;DHT22;11481;53.694;9.910;2022-12-20T11:00:44;10.30;99.90
22629;DHT22;11481;53.694;9.910;2022-12-20T11:03:19;10.40;99.90
22629;DHT22;11481;53.694;9.910;2022-12-20T11:05:59;10.40;99.90
22629;DHT22;11481;53.694;9.910;2022-12-20T11:08:28;10.40;99.90
22629;DHT22;11481;53.694;9.910;2022-12-20T11:11:15;10.40;99.90
22629;DHT22;11481;53.694;9.910;2022-12-20T11:13:43;10.50;99.90
22629;DHT22;11481;53.694;9.910;2022-12-20T11:16:34;10.60;99.90
22629;DHT22;11481;53.694;9.910;2022-12-20T11:19:26;10.60;99.90
22629;DHT22;11481;53.694;9.910;2022-12-20T11:22:17;10.60;99.90
22629;DHT22;11481;53.694;9.910;2022-12-20T11:24:58;10.60;99.90
22629;DHT22;11481;53.694;9.910;2022-12-20T11:27:50;10.70;99.90
22629;DHT22;11481;53.694;9.910;2022-12-20T11:30:18;10.70;99.90
22629;DHT22;11481;53.694;9.910;2022-12-20T11:35:40;10.70;99.90
22629;DHT22;11481;53.694;9.910;2022-12-20T11:38:49;10.70;99.90
22629;DHT22;11481;53.694;9.910;2022-12-20T11:52:56;10.80;99.90
22629;DHT22;11481;53.694;9.910;2022-12-20T11:55:30;10.90;99.90
22629;DHT22;11481;53.694;9.910;2022-12-20T11:58:09;10.80;99.90
22629;DHT22;11481;53.694;9.910;2022-12-20T12:01:15;10.90;99.90
22629;DHT22;11481;53.694;9.910;2022-12-20T12:04:07;10.90;99.90
22629;DHT22;11481;53.694;9.910;2022-12-20T12:06:42;10.90;99.90
22629;DHT22;11481;53.694;9.910;2022-12-20T12:09:23;10.80;99.90
22629;DHT22;11481;53.694;9.910;2022-12-20T12:12:18;10.90;99.90
22629;DHT22;11481;53.694;9.910;2022-12-20T12:17:25;10.80;99.90
22629;DHT22;11481;53.694;9.910;2022-12-20T12:20:05;10.80;99.90
22629;DHT22;11481;53.694;9.910;2022-12-20T12:22:40;10.80;99.90
22629;DHT22;11481;53.694;9.910;2022-12-20T12:25:12;10.80;99.90
22629;DHT22;11481;53.694;9.910;2022-12-20T12:27:41;10.80;99.90
22629;DHT22;11481;53.694;9.910;2022-12-20T12:30:13;10.80;99.90
22629;DHT22;11481;53.694;9.910;2022-12-20T12:32:54;10.80;99.90
22629;DHT22;11481;53.694;9.910;2022-12-20T12:35:47;10.80;99.90
22629;DHT22;11481;53.694;9.910;2022-12-20T12:41:24;10.90;99.90
22629;DHT22;11481;53.694;9.910;2022-12-20T12:43:56;10.90;99.90
22629;DHT22;11481;53.694;9.910;2022-12-20T12:46:33;10.80;99.90
22629;DHT22;11481;53.694;9.910;2022-12-20T12:49:08;10.80;99.90
22629;DHT22;11481;53.694;9.910;2022-12-20T12:51:39;10.70;99.90
22629;DHT22;11481;53.694;9.910;2022-12-20T12:54:34;10.70;99.90
22629;DHT22;11481;53.694;9.910;2022-12-20T12:57:06;10.70;99.90
22629;DHT22;11481;53.694;9.910;2022-12-20T13:17:56;10.70;99.90
22629;DHT22;11481;53.694;9.910;2022-12-20T13:20:32;10.70;99.90
22629;DHT22;11481;53.694;9.910;2022-12-20T13:25:47;10.70;99.90
22629;DHT22;11481;53.694;9.910;2022-12-20T13:30:43;10.60;99.90
22629;DHT22;11481;53.694;9.910;2022-12-20T13:33:39;10.50;99.90
22629;DHT22;11481;53.694;9.910;2022-12-20T13:39:00;10.50;99.90
22629;DHT22;11481;53.694;9.910;2022-12-20T13:41:47;10.60;99.90
22629;DHT22;11481;53.694;9.910;2022-12-20T13:47:05;10.40;99.90
22629;DHT22;11481;53.694;9.910;2022-12-20T13:49:41;10.40;99.90
22629;DHT22;11481;53.694;9.910;2022-12-20T13:52:41;10.40;99.90
22629;DHT22;11481;53.694;9.910;2022-12-20T13:55:37;10.40;99.90
22629;DHT22;11481;53.694;9.910;2022-12-20T13:58:15;10.40;99.90
22629;DHT22;11481;53.694;9.910;2022-12-20T14:00:44;10.40;99.90
22629;DHT22;11481;53.694;9.910;2022-12-20T14:03:20;10.40;99.90
22629;DHT22;11481;53.694;9.910;2022-12-20T14:05:56;10.40;99.90
22629;DHT22;11481;53.694;9.910;2022-12-20T14:08:28;10.30;99.90
22629;DHT22;11481;53.694;9.910;2022-12-20T14:11:12;10.40;99.90
22629;DHT22;11481;53.694;9.910;2022-12-20T14:13:40;10.40;99.90
22629;DHT22;11481;53.694;9.910;2022-12-20T14:16:16;10.30;99.90
22629;DHT22;11481;53.694;9.910;2022-12-20T14:19:03;10.30;99.90
22629;DHT22;11481;53.694;9.910;2022-12-20T14:21:34;10.30;99.90
22629;DHT22;11481;53.694;9.910;2022-12-20T14:24:02;10.30;99.90
22629;DHT22;11481;53.694;9.910;2022-12-20T14:26:37;10.30;99.90
22629;DHT22;11481;53.694;9.910;2022-12-20T14:29:19;10.20;99.90
22629;DHT22;11481;53.694;9.910;2022-12-20T14:31:52;10.20;99.90
22629;DHT22;11481;53.694;9.910;2022-12-20T14:34:25;10.20;99.90
22629;DHT22;11481;53.694;9.910;2022-12-20T14:40:23;10.20;99.90
22629;DHT22;11481;53.694;9.910;2022-12-20T14:42:53;10.20;99.90
22629;DHT22;11481;53.694;9.910;2022-12-20T14:45:25;10.20;99.90
22629;DHT22;11481;53.694;9.910;2022-12-20T14:48:14;10.20;99.90
22629;DHT22;11481;53.694;9.910;2022-12-20T14:50:51;10.30;99.90
22629;DHT22;11481;53.694;9.910;2022-12-20T14:53:22;10.30;99.90
22629;DHT22;11481;53.694;9.910;2022-12-20T14:55:50;10.20;99.90
22629;DHT22;11481;53.694;9.910;2022-12-20T14:58:32;10.20;99.90
22629;DHT22;11481;53.694;9.910;2022-12-20T15:01:34;10.20;99.90
22629;DHT22;11481;53.694;9.910;2022-12-20T15:03:58;10.20;99.90
22629;DHT22;11481;53.694;9.910;2022-12-20T15:06:34;10.20;99.90
22629;DHT22;11481;53.694;9.910;2022-12-20T15:09:03;10.20;99.90
22629;DHT22;11481;53.694;9.910;2022-12-20T15:11:31;10.20;99.90
22629;DHT22;11481;53.694;9.910;2022-12-20T15:14:00;10.20;99.90
22629;DHT22;11481;53.694;9.910;2022-12-20T15:16:28;10.20;99.90
22629;DHT22;11481;53.694;9.910;2022-12-20T15:19:00;10.20;99.90
22629;DHT22;11481;53.694;9.910;2022-12-20T15:21:35;10.20;99.90
22629;DHT22;11481;53.694;9.910;2022-12-20T15:24:12;10.10;99.90
22629;DHT22;11481;53.694;9.910;2022-12-20T15:26:39;10.10;99.90
22629;DHT22;11481;53.694;9.910;2022-12-20T15:29:16;10.10;99.90
22629;DHT22;11481;53.694;9.910;2022-12-20T15:31:44;10.20;99.90
22629;DHT22;11481;53.694;9.910;2022-12-20T15:34:18;10.20;99.90
22629;DHT22;11481;53.694;9.910;2022-12-20T15:36:46;10.20;99.90
22629;DHT22;11481;53.694;9.910;2022-12-20T15:39:13;10.20;99.90
22629;DHT22;11481;53.694;9.910;2022-12-20T15:41:43;10.20;99.90
22629;DHT22;11481;53.694;9.910;2022-12-20T15:44:26;10.30;99.90
22629;DHT22;11481;53.694;9.910;2022-12-20T15:46:54;10.30;99.90
22629;DHT22;11481;53.694;9.910;2022-12-20T15:49:23;10.30;99.90
22629;DHT22;11481;53.694;9.910;2022-12-20T15:51:52;10.20;99.90
22629;DHT22;11481;53.694;9.910;2022-12-20T15:54:27;10.30;99.90
22629;DHT22;11481;53.694;9.910;2022-12-20T15:56:59;10.20;99.90
22629;DHT22;11481;53.694;9.910;2022-12-20T15:59:29;10.30;99.90
22629;DHT22;11481;53.694;9.910;2022-12-20T16:02:22;10.20;99.90
22629;DHT22;11481;53.694;9.910;2022-12-20T16:04:51;10.10;99.90
22629;DHT22;11481;53.694;9.910;2022-12-20T16:07:18;10.20;99.90
22629;DHT22;11481;53.694;9.910;2022-12-20T16:09:45;10.20;99.90
22629;DHT22;11481;53.694;9.910;2022-12-20T16:12:18;10.10;99.90
22629;DHT22;11481;53.694;9.910;2022-12-20T16:14:46;10.20;99.90
22629;DHT22;11481;53.694;9.910;2022-12-20T16:17:14;10.10;99.90
22629;DHT22;11481;53.694;9.910;2022-12-20T16:19:42;10.10;99.90
22629;DHT22;11481;53.694;9.910;2022-12-20T16:22:20;10.00;99.90
22629;DHT22;11481;53.694;9.910;2022-12-20T16:24:51;10.10;99.90
22629;DHT22;11481;53.694;9.910;2022-12-20T16:27:18;10.10;99.90
22629;DHT22;11481;53.694;9.910;2022-12-20T16:29:48;10.10;99.90
22629;DHT22;11481;53.694;9.910;2022-12-20T16:32:31;10.10;99.90
22629;DHT22;11481;53.694;9.910;2022-12-20T16:34:58;10.10;99.90
22629;DHT22;11481;53.694;9.910;2022-12-20T16:37:24;10.00;99.90
22629;DHT22;11481;53.694;9.910;2022-12-20T16:40:01;10.00;99.90
22629;DHT22;11481;53.694;9.910;2022-12-20T16:42:28;9.90;99.90
22629;DHT22;11481;53.694;9.910;2022-12-20T16:44:55;10.00;99.90
22629;DHT22;11481;53.694;9.910;2022-12-20T16:47:22;10.00;99.90
22629;DHT22;11481;53.694;9.910;2022-12-20T16:49:48;10.10;99.90
22629;DHT22;11481;53.694;9.910;2022-12-20T16:52:20;10.00;99.90
22629;DHT22;11481;53.694;9.910;2022-12-20T16:54:48;10.00;99.90
22629;DHT22;11481;53.694;9.910;2022-12-20T16:57:15;10.10;99.90
22629;DHT22;11481;53.694;9.910;2022-12-20T16:59:42;10.10;99.90
22629;DHT22;11481;53.694;9.910;2022-12-20T17:02:22;10.10;99.90
22629;DHT22;11481;53.694;9.910;2022-12-20T17:04:51;10.10;99.90
22629;DHT22;11481;53.694;9.910;2022-12-20T17:07:19;10.10;99.90
22629;DHT22;11481;53.694;9.910;2022-12-20T17:09:46;10.10;99.90
22629;DHT22;11481;53.694;9.910;2022-12-20T17:12:30;10.00;99.90
22629;DHT22;11481;53.694;9.910;2022-12-20T17:14:58;10.00;99.90
22629;DHT22;11481;53.694;9.910;2022-12-20T17:17:25;10.00;99.90
22629;DHT22;11481;53.694;9.910;2022-12-20T17:19:53;10.10;99.90
22629;DHT22;11481;53.694;9.910;2022-12-20T17:22:20;10.10;99.90
22629;DHT22;11481;53.694;9.910;2022-12-20T17:24:49;10.10;99.90
22629;DHT22;11481;53.694;9.910;2022-12-20T17:27:16;10.10;99.90
22629;DHT22;11481;53.694;9.910;2022-12-20T17:29:43;10.00;99.90